Brooklyn Park, MN

3:47 PM CDT on May 24, 2015 (GMT -0500)
Brooklyn Park, Solar Energy Data | | Change Station
CLOSE
Current Station
Personal Weather Station
Location: Brooklyn Park, MN
Elevation: 870 ft
Nearby Weather Stations

Elev 870 ft 45.13 °N, 93.31 °W | Updated 2 minutes ago

Rain
Rain
59.5 °F
Feels Like 59.5 °F
N
3.0
Wind Variable Wind from ENE
Gusts 4.0 mph

Today
High -- | Low -- °F
--% Chance of Precip.
Yesterday
High -- | Low -- °F
Precip. -- in
5:35 AM 8:45 PM
Waxing Crescent, 42% visible
Pressure 29.94 in
Visibility 5.0 miles
Clouds Mostly Cloudy 1600 ft
Overcast 2100 ft
Dew Point 58 °F
Humidity 93%
Rainfall 0.00 in
Snow Depth Not available.
UV 0.0 out of 12
Pollen 4.10 out of 12
Air Quality Not available.
Flu Activity Sporadic
SPECI KMIC 242029Z 07008KT 5SM -RA BR BKN016 OVC021 16/14 A2994 RMK AO2 P0002 T01610139

More Conditions Fewer Conditions

Pressure 29.94 in
Visibility 5.0 miles
Clouds Mostly Cloudy 1600 ft
Overcast 2100 ft
Dew Point 58 °F
Humidity 93%
Rainfall 0.00 in
Snow Depth Not available.
UV 0.0 out of 12
Pollen 4.10 out of 12
Air Quality Not available.
Flu Activity Sporadic
SPECI KMIC 242029Z 07008KT 5SM -RA BR BKN016 OVC021 16/14 A2994 RMK AO2 P0002 T01610139

More Conditions Fewer Conditions

10-Day Weather Forecast

Almanac

Astronomy

May. 24, 2015 Rise Set
Actual Time
Civil Twilight
Nautical Twilight
Astronomical Twilight
Moon
Length of Visible Light
Length of Day
Tomorrow will be .
, % of the Moon is Illuminated

Today's Extremes

State Highs State Lows

Community

WunderPhotos

Upload Photos

1,823,862 photos uploaded!

WunderBlogs® & News

Nearby

Air Quality

  Air Quality AQ Index Pollutant
Not available.

Snow Depth

Station Depth Elevation

Earthquake Activity

City Distance Mag. Time & Date
Minimum magnitude displayed is 2.5.

Coastal Water Temperatures

Place Temperature

Stations

Nearby Weather Stations

Station Location Temp. Windchill Dew Point Humidity Wind Precip. Elev Updated Type